sensor_id;sensor_type;location;lat;lon;timestamp;temperature;humidity
13389;DHT22;6764;53.250;10.410;2023-12-04T00:00:35;-0.40;99.90
13389;DHT22;6764;53.250;10.410;2023-12-04T00:03:01;-0.40;99.90
13389;DHT22;6764;53.250;10.410;2023-12-04T00:05:27;-0.40;99.90
13389;DHT22;6764;53.250;10.410;2023-12-04T00:07:52;-0.40;99.90
13389;DHT22;6764;53.250;10.410;2023-12-04T00:10:18;-0.50;99.90
13389;DHT22;6764;53.250;10.410;2023-12-04T00:12:44;-0.40;99.90
13389;DHT22;6764;53.250;10.410;2023-12-04T00:15:09;-0.50;99.90
13389;DHT22;6764;53.250;10.410;2023-12-04T00:17:35;-0.40;99.90
13389;DHT22;6764;53.250;10.410;2023-12-04T00:20:06;-0.30;99.90
13389;DHT22;6764;53.250;10.410;2023-12-04T00:22:31;-0.40;99.90
13389;DHT22;6764;53.250;10.410;2023-12-04T00:24:57;-0.30;99.90
13389;DHT22;6764;53.250;10.410;2023-12-04T00:27:23;-0.30;99.90
13389;DHT22;6764;53.250;10.410;2023-12-04T00:29:52;-0.30;99.90
13389;DHT22;6764;53.250;10.410;2023-12-04T00:32:18;-0.40;99.90
13389;DHT22;6764;53.250;10.410;2023-12-04T00:34:43;-0.40;99.90
13389;DHT22;6764;53.250;10.410;2023-12-04T00:37:09;-0.40;99.90
13389;DHT22;6764;53.250;10.410;2023-12-04T00:39:35;-0.40;99.90
13389;DHT22;6764;53.250;10.410;2023-12-04T00:42:00;-0.50;99.90
13389;DHT22;6764;53.250;10.410;2023-12-04T00:44:26;-0.50;99.90
13389;DHT22;6764;53.250;10.410;2023-12-04T00:46:51;-0.50;99.90
13389;DHT22;6764;53.250;10.410;2023-12-04T00:49:17;-0.60;99.90
13389;DHT22;6764;53.250;10.410;2023-12-04T00:51:43;-0.50;99.90
13389;DHT22;6764;53.250;10.410;2023-12-04T00:54:08;-0.50;99.90
13389;DHT22;6764;53.250;10.410;2023-12-04T00:56:34;-0.50;99.90
13389;DHT22;6764;53.250;10.410;2023-12-04T00:58:59;-0.50;99.90
13389;DHT22;6764;53.250;10.410;2023-12-04T01:01:25;-0.50;99.90
13389;DHT22;6764;53.250;10.410;2023-12-04T01:03:51;-0.50;99.90
13389;DHT22;6764;53.250;10.410;2023-12-04T01:06:23;-0.60;99.90
13389;DHT22;6764;53.250;10.410;2023-12-04T01:08:49;-0.70;99.90
13389;DHT22;6764;53.250;10.410;2023-12-04T01:11:16;-0.80;99.90
13389;DHT22;6764;53.250;10.410;2023-12-04T01:13:42;-0.80;99.90
13389;DHT22;6764;53.250;10.410;2023-12-04T01:16:08;-0.70;99.90
13389;DHT22;6764;53.250;10.410;2023-12-04T01:18:35;-0.70;99.90
13389;DHT22;6764;53.250;10.410;2023-12-04T01:21:00;-0.60;99.90
13389;DHT22;6764;53.250;10.410;2023-12-04T01:23:26;-0.60;99.90
13389;DHT22;6764;53.250;10.410;2023-12-04T01:25:51;-0.70;99.90
13389;DHT22;6764;53.250;10.410;2023-12-04T01:28:17;-0.80;99.90
13389;DHT22;6764;53.250;10.410;2023-12-04T01:30:43;-0.80;99.90
13389;DHT22;6764;53.250;10.410;2023-12-04T01:33:08;-0.80;99.90
13389;DHT22;6764;53.250;10.410;2023-12-04T01:35:34;-0.90;99.90
13389;DHT22;6764;53.250;10.410;2023-12-04T01:38:00;-0.90;99.90
13389;DHT22;6764;53.250;10.410;2023-12-04T01:40:26;-0.90;99.90
13389;DHT22;6764;53.250;10.410;2023-12-04T01:42:52;-0.90;99.90
13389;DHT22;6764;53.250;10.410;2023-12-04T01:45:17;-0.70;99.90
13389;DHT22;6764;53.250;10.410;2023-12-04T01:47:45;-0.90;99.90
13389;DHT22;6764;53.250;10.410;2023-12-04T01:50:12;-0.90;99.90
13389;DHT22;6764;53.250;10.410;2023-12-04T01:52:42;-0.80;99.90
13389;DHT22;6764;53.250;10.410;2023-12-04T01:55:09;-0.80;99.90
13389;DHT22;6764;53.250;10.410;2023-12-04T01:57:35;-0.80;99.90
13389;DHT22;6764;53.250;10.410;2023-12-04T02:00:01;-0.70;99.90
13389;DHT22;6764;53.250;10.410;2023-12-04T02:02:29;-0.80;99.90
13389;DHT22;6764;53.250;10.410;2023-12-04T02:04:55;-0.80;99.90
13389;DHT22;6764;53.250;10.410;2023-12-04T02:07:23;-0.80;99.90
13389;DHT22;6764;53.250;10.410;2023-12-04T02:09:49;-0.80;99.90
13389;DHT22;6764;53.250;10.410;2023-12-04T02:12:15;-0.80;99.90
13389;DHT22;6764;53.250;10.410;2023-12-04T02:14:40;-0.80;99.90
13389;DHT22;6764;53.250;10.410;2023-12-04T02:17:07;-0.60;99.90
13389;DHT22;6764;53.250;10.410;2023-12-04T02:19:34;-0.60;99.90
13389;DHT22;6764;53.250;10.410;2023-12-04T02:22:00;-0.70;99.90
13389;DHT22;6764;53.250;10.410;2023-12-04T02:24:26;-0.70;99.90
13389;DHT22;6764;53.250;10.410;2023-12-04T02:29:41;-0.70;99.90
13389;DHT22;6764;53.250;10.410;2023-12-04T02:32:11;-0.70;99.90
13389;DHT22;6764;53.250;10.410;2023-12-04T02:34:40;-0.70;99.90
13389;DHT22;6764;53.250;10.410;2023-12-04T02:37:08;-0.70;99.90
13389;DHT22;6764;53.250;10.410;2023-12-04T02:39:35;-0.70;99.90
13389;DHT22;6764;53.250;10.410;2023-12-04T02:42:01;-0.70;99.90
13389;DHT22;6764;53.250;10.410;2023-12-04T02:44:27;-0.60;99.90
13389;DHT22;6764;53.250;10.410;2023-12-04T02:46:53;-0.50;99.90
13389;DHT22;6764;53.250;10.410;2023-12-04T02:49:18;-0.50;99.90
13389;DHT22;6764;53.250;10.410;2023-12-04T02:51:44;-0.60;99.90
13389;DHT22;6764;53.250;10.410;2023-12-04T02:54:09;-0.60;99.90
13389;DHT22;6764;53.250;10.410;2023-12-04T02:56:35;-0.60;99.90
13389;DHT22;6764;53.250;10.410;2023-12-04T02:59:01;-0.60;99.90
13389;DHT22;6764;53.250;10.410;2023-12-04T03:01:26;-0.60;99.90
13389;DHT22;6764;53.250;10.410;2023-12-04T03:03:52;-0.60;99.90
13389;DHT22;6764;53.250;10.410;2023-12-04T03:06:18;-0.50;99.90
13389;DHT22;6764;53.250;10.410;2023-12-04T03:08:43;-0.50;99.90
13389;DHT22;6764;53.250;10.410;2023-12-04T03:11:09;-0.50;99.90
13389;DHT22;6764;53.250;10.410;2023-12-04T03:13:35;-0.40;99.90
13389;DHT22;6764;53.250;10.410;2023-12-04T03:16:00;-0.40;99.90
13389;DHT22;6764;53.250;10.410;2023-12-04T03:18:26;-0.40;99.90
13389;DHT22;6764;53.250;10.410;2023-12-04T03:20:54;-0.30;99.90
13389;DHT22;6764;53.250;10.410;2023-12-04T03:23:19;-0.30;99.90
13389;DHT22;6764;53.250;10.410;2023-12-04T03:25:45;-0.30;99.90
13389;DHT22;6764;53.250;10.410;2023-12-04T03:28:11;-0.40;99.90
13389;DHT22;6764;53.250;10.410;2023-12-04T03:30:38;-0.50;99.90
13389;DHT22;6764;53.250;10.410;2023-12-04T03:33:04;-0.40;99.90
13389;DHT22;6764;53.250;10.410;2023-12-04T03:35:29;-0.40;99.90
13389;DHT22;6764;53.250;10.410;2023-12-04T03:37:55;-0.30;99.90
13389;DHT22;6764;53.250;10.410;2023-12-04T03:40:21;-0.30;99.90
13389;DHT22;6764;53.250;10.410;2023-12-04T03:42:46;-0.30;99.90
13389;DHT22;6764;53.250;10.410;2023-12-04T03:45:12;-0.40;99.90
13389;DHT22;6764;53.250;10.410;2023-12-04T03:47:37;-0.30;99.90
13389;DHT22;6764;53.250;10.410;2023-12-04T03:50:03;-0.30;99.90
13389;DHT22;6764;53.250;10.410;2023-12-04T03:52:29;-0.20;99.90
13389;DHT22;6764;53.250;10.410;2023-12-04T03:54:55;-0.20;99.90
13389;DHT22;6764;53.250;10.410;2023-12-04T03:57:20;-0.20;99.90
13389;DHT22;6764;53.250;10.410;2023-12-04T03:59:46;-0.20;99.90
13389;DHT22;6764;53.250;10.410;2023-12-04T04:02:11;-0.30;99.90
13389;DHT22;6764;53.250;10.410;2023-12-04T04:04:37;-0.30;99.90
13389;DHT22;6764;53.250;10.410;2023-12-04T04:07:03;-0.30;99.90
13389;DHT22;6764;53.250;10.410;2023-12-04T04:09:28;-0.50;99.90
13389;DHT22;6764;53.250;10.410;2023-12-04T04:11:54;-0.60;99.90
13389;DHT22;6764;53.250;10.410;2023-12-04T04:14:19;-0.50;99.90
13389;DHT22;6764;53.250;10.410;2023-12-04T04:16:45;-0.50;99.90
13389;DHT22;6764;53.250;10.410;2023-12-04T04:19:11;-0.40;99.90
13389;DHT22;6764;53.250;10.410;2023-12-04T04:21:39;-0.70;99.90
13389;DHT22;6764;53.250;10.410;2023-12-04T04:24:06;-0.60;99.90
13389;DHT22;6764;53.250;10.410;2023-12-04T04:26:31;-0.50;99.90
13389;DHT22;6764;53.250;10.410;2023-12-04T04:28:58;-0.50;99.90
13389;DHT22;6764;53.250;10.410;2023-12-04T04:31:24;-0.40;99.90
13389;DHT22;6764;53.250;10.410;2023-12-04T04:33:50;-0.40;99.90
13389;DHT22;6764;53.250;10.410;2023-12-04T04:36:17;-0.40;99.90
13389;DHT22;6764;53.250;10.410;2023-12-04T04:38:42;-0.40;99.90
13389;DHT22;6764;53.250;10.410;2023-12-04T04:41:13;-0.40;99.90
13389;DHT22;6764;53.250;10.410;2023-12-04T04:43:39;-0.30;99.90
13389;DHT22;6764;53.250;10.410;2023-12-04T04:46:05;-0.20;99.90
13389;DHT22;6764;53.250;10.410;2023-12-04T04:48:31;-0.20;99.90
13389;DHT22;6764;53.250;10.410;2023-12-04T04:50:56;-0.30;99.90
13389;DHT22;6764;53.250;10.410;2023-12-04T04:53:22;-0.30;99.90
13389;DHT22;6764;53.250;10.410;2023-12-04T04:55:47;-0.30;99.90
13389;DHT22;6764;53.250;10.410;2023-12-04T04:58:13;-0.20;99.90
13389;DHT22;6764;53.250;10.410;2023-12-04T05:00:39;-0.10;99.90
13389;DHT22;6764;53.250;10.410;2023-12-04T05:03:04;-0.20;99.90
13389;DHT22;6764;53.250;10.410;2023-12-04T05:05:30;-0.20;99.90
13389;DHT22;6764;53.250;10.410;2023-12-04T05:07:55;-0.20;99.90
13389;DHT22;6764;53.250;10.410;2023-12-04T05:10:21;-0.10;99.90
13389;DHT22;6764;53.250;10.410;2023-12-04T05:12:46;-0.10;99.90
13389;DHT22;6764;53.250;10.410;2023-12-04T05:15:12;-0.10;99.90
13389;DHT22;6764;53.250;10.410;2023-12-04T05:17:38;-0.20;99.90
13389;DHT22;6764;53.250;10.410;2023-12-04T05:20:04;-0.30;99.90
13389;DHT22;6764;53.250;10.410;2023-12-04T05:22:29;-0.40;99.90
13389;DHT22;6764;53.250;10.410;2023-12-04T05:24:55;-0.60;99.90
13389;DHT22;6764;53.250;10.410;2023-12-04T05:27:21;-0.70;99.90
13389;DHT22;6764;53.250;10.410;2023-12-04T05:29:46;-0.60;99.90
13389;DHT22;6764;53.250;10.410;2023-12-04T05:32:12;-0.60;99.90
13389;DHT22;6764;53.250;10.410;2023-12-04T05:34:38;-0.50;99.90
13389;DHT22;6764;53.250;10.410;2023-12-04T05:37:04;-0.40;99.90
13389;DHT22;6764;53.250;10.410;2023-12-04T05:39:29;-0.40;99.90
13389;DHT22;6764;53.250;10.410;2023-12-04T05:41:55;-0.30;99.90
13389;DHT22;6764;53.250;10.410;2023-12-04T05:44:20;-0.30;99.90
13389;DHT22;6764;53.250;10.410;2023-12-04T05:46:46;-0.30;99.90
13389;DHT22;6764;53.250;10.410;2023-12-04T05:49:12;-0.20;99.90
13389;DHT22;6764;53.250;10.410;2023-12-04T05:51:37;-0.10;99.90
13389;DHT22;6764;53.250;10.410;2023-12-04T05:54:03;-0.40;99.90
13389;DHT22;6764;53.250;10.410;2023-12-04T05:56:29;-0.40;99.90
13389;DHT22;6764;53.250;10.410;2023-12-04T05:58:55;-0.40;99.90
13389;DHT22;6764;53.250;10.410;2023-12-04T06:01:21;-0.40;99.90
13389;DHT22;6764;53.250;10.410;2023-12-04T06:03:47;-0.40;99.90
13389;DHT22;6764;53.250;10.410;2023-12-04T06:06:12;-0.40;99.90
13389;DHT22;6764;53.250;10.410;2023-12-04T06:08:38;-0.30;99.90
13389;DHT22;6764;53.250;10.410;2023-12-04T06:11:03;-0.30;99.90
13389;DHT22;6764;53.250;10.410;2023-12-04T06:13:29;-0.20;99.90
13389;DHT22;6764;53.250;10.410;2023-12-04T06:15:55;-0.20;99.90
13389;DHT22;6764;53.250;10.410;2023-12-04T06:18:20;-0.40;99.90
13389;DHT22;6764;53.250;10.410;2023-12-04T06:20:46;-0.50;99.90
13389;DHT22;6764;53.250;10.410;2023-12-04T06:23:12;-0.60;99.90
13389;DHT22;6764;53.250;10.410;2023-12-04T06:25:38;-0.60;99.90
13389;DHT22;6764;53.250;10.410;2023-12-04T06:28:04;-0.50;99.90
13389;DHT22;6764;53.250;10.410;2023-12-04T06:30:30;-0.40;99.90
13389;DHT22;6764;53.250;10.410;2023-12-04T06:32:56;-0.40;99.90
13389;DHT22;6764;53.250;10.410;2023-12-04T06:35:22;-0.40;99.90
13389;DHT22;6764;53.250;10.410;2023-12-04T06:37:53;-0.40;99.90
13389;DHT22;6764;53.250;10.410;2023-12-04T06:40:19;-0.30;99.90
13389;DHT22;6764;53.250;10.410;2023-12-04T06:42:45;-0.40;99.90
13389;DHT22;6764;53.250;10.410;2023-12-04T06:45:11;-0.40;99.90
13389;DHT22;6764;53.250;10.410;2023-12-04T06:47:37;-0.30;99.90
13389;DHT22;6764;53.250;10.410;2023-12-04T06:50:05;-0.20;99.90
13389;DHT22;6764;53.250;10.410;2023-12-04T06:52:31;-0.30;99.90
13389;DHT22;6764;53.250;10.410;2023-12-04T06:54:57;-0.40;99.90
13389;DHT22;6764;53.250;10.410;2023-12-04T06:57:22;-0.40;99.90
13389;DHT22;6764;53.250;10.410;2023-12-04T06:59:48;-0.30;99.90
13389;DHT22;6764;53.250;10.410;2023-12-04T07:02:13;-0.10;99.90
13389;DHT22;6764;53.250;10.410;2023-12-04T07:04:39;0.00;99.90
13389;DHT22;6764;53.250;10.410;2023-12-04T07:07:05;0.00;99.90
13389;DHT22;6764;53.250;10.410;2023-12-04T07:09:32;0.10;99.90
13389;DHT22;6764;53.250;10.410;2023-12-04T07:11:58;0.30;99.90
13389;DHT22;6764;53.250;10.410;2023-12-04T07:14:23;0.30;99.90
13389;DHT22;6764;53.250;10.410;2023-12-04T07:16:49;0.40;99.90
13389;DHT22;6764;53.250;10.410;2023-12-04T07:19:15;0.50;99.90
13389;DHT22;6764;53.250;10.410;2023-12-04T07:21:42;0.50;99.90
13389;DHT22;6764;53.250;10.410;2023-12-04T07:24:08;0.50;99.90
13389;DHT22;6764;53.250;10.410;2023-12-04T07:26:34;0.40;99.90
13389;DHT22;6764;53.250;10.410;2023-12-04T07:29:01;0.40;99.90
13389;DHT22;6764;53.250;10.410;2023-12-04T07:31:26;0.40;99.90
13389;DHT22;6764;53.250;10.410;2023-12-04T07:33:55;0.50;99.90
13389;DHT22;6764;53.250;10.410;2023-12-04T07:36:21;0.50;99.90
13389;DHT22;6764;53.250;10.410;2023-12-04T07:38:47;0.60;99.90
13389;DHT22;6764;53.250;10.410;2023-12-04T07:41:12;0.70;99.90
13389;DHT22;6764;53.250;10.410;2023-12-04T07:43:39;0.80;99.90
13389;DHT22;6764;53.250;10.410;2023-12-04T07:46:05;0.70;99.90
13389;DHT22;6764;53.250;10.410;2023-12-04T07:48:31;0.80;99.90
13389;DHT22;6764;53.250;10.410;2023-12-04T07:50:57;0.70;99.90
13389;DHT22;6764;53.250;10.410;2023-12-04T07:53:22;0.80;99.90
13389;DHT22;6764;53.250;10.410;2023-12-04T07:55:48;0.70;99.90
13389;DHT22;6764;53.250;10.410;2023-12-04T07:58:17;0.70;99.90
13389;DHT22;6764;53.250;10.410;2023-12-04T08:00:43;0.80;99.90
13389;DHT22;6764;53.250;10.410;2023-12-04T08:03:09;0.80;99.90
13389;DHT22;6764;53.250;10.410;2023-12-04T08:05:34;0.90;99.90
13389;DHT22;6764;53.250;10.410;2023-12-04T08:08:00;0.90;99.90
13389;DHT22;6764;53.250;10.410;2023-12-04T08:10:26;0.90;99.90
13389;DHT22;6764;53.250;10.410;2023-12-04T08:12:52;0.80;99.90
13389;DHT22;6764;53.250;10.410;2023-12-04T08:15:17;0.80;99.90
13389;DHT22;6764;53.250;10.410;2023-12-04T08:17:43;0.60;99.90
13389;DHT22;6764;53.250;10.410;2023-12-04T08:20:09;0.70;99.90
13389;DHT22;6764;53.250;10.410;2023-12-04T08:22:39;0.70;99.90
13389;DHT22;6764;53.250;10.410;2023-12-04T08:25:05;0.80;99.90
13389;DHT22;6764;53.250;10.410;2023-12-04T08:27:32;0.70;99.90
13389;DHT22;6764;53.250;10.410;2023-12-04T08:29:58;0.80;99.90
13389;DHT22;6764;53.250;10.410;2023-12-04T08:32:24;0.70;99.90
13389;DHT22;6764;53.250;10.410;2023-12-04T08:34:51;0.80;99.90
13389;DHT22;6764;53.250;10.410;2023-12-04T08:37:18;0.80;99.90
13389;DHT22;6764;53.250;10.410;2023-12-04T08:39:44;0.80;99.90
13389;DHT22;6764;53.250;10.410;2023-12-04T08:42:11;1.00;99.90
13389;DHT22;6764;53.250;10.410;2023-12-04T08:44:36;1.00;99.90
13389;DHT22;6764;53.250;10.410;2023-12-04T08:47:02;0.90;99.90
13389;DHT22;6764;53.250;10.410;2023-12-04T08:49:28;0.90;99.90
13389;DHT22;6764;53.250;10.410;2023-12-04T08:51:53;1.00;99.90
13389;DHT22;6764;53.250;10.410;2023-12-04T08:54:19;0.90;99.90
13389;DHT22;6764;53.250;10.410;2023-12-04T08:56:45;1.00;99.90
13389;DHT22;6764;53.250;10.410;2023-12-04T08:59:10;0.90;99.90
13389;DHT22;6764;53.250;10.410;2023-12-04T09:01:38;1.00;99.90
13389;DHT22;6764;53.250;10.410;2023-12-04T09:04:04;1.00;99.90
13389;DHT22;6764;53.250;10.410;2023-12-04T09:06:30;0.90;99.90
13389;DHT22;6764;53.250;10.410;2023-12-04T09:08:55;0.80;99.90
13389;DHT22;6764;53.250;10.410;2023-12-04T09:11:21;0.90;99.90
13389;DHT22;6764;53.250;10.410;2023-12-04T09:13:46;0.90;99.90
13389;DHT22;6764;53.250;10.410;2023-12-04T09:16:12;0.90;99.90
13389;DHT22;6764;53.250;10.410;2023-12-04T09:18:39;0.90;99.90
13389;DHT22;6764;53.250;10.410;2023-12-04T09:21:05;0.80;99.90
13389;DHT22;6764;53.250;10.410;2023-12-04T09:23:30;0.90;99.90
13389;DHT22;6764;53.250;10.410;2023-12-04T09:25:56;1.00;99.90
13389;DHT22;6764;53.250;10.410;2023-12-04T09:28:22;1.00;99.90
13389;DHT22;6764;53.250;10.410;2023-12-04T09:30:49;1.00;99.90
13389;DHT22;6764;53.250;10.410;2023-12-04T09:33:14;1.20;99.90
13389;DHT22;6764;53.250;10.410;2023-12-04T09:35:40;1.20;99.90
13389;DHT22;6764;53.250;10.410;2023-12-04T09:38:05;1.30;99.90
13389;DHT22;6764;53.250;10.410;2023-12-04T09:40:32;1.40;99.90
13389;DHT22;6764;53.250;10.410;2023-12-04T09:42:58;1.40;99.90
13389;DHT22;6764;53.250;10.410;2023-12-04T09:45:28;1.40;99.90
13389;DHT22;6764;53.250;10.410;2023-12-04T09:47:55;1.50;99.90
13389;DHT22;6764;53.250;10.410;2023-12-04T09:50:21;1.50;99.90
13389;DHT22;6764;53.250;10.410;2023-12-04T09:52:51;1.50;99.90
13389;DHT22;6764;53.250;10.410;2023-12-04T09:55:18;1.60;99.90
13389;DHT22;6764;53.250;10.410;2023-12-04T09:57:44;1.60;99.90
13389;DHT22;6764;53.250;10.410;2023-12-04T10:00:12;1.30;99.90
13389;DHT22;6764;53.250;10.410;2023-12-04T10:02:39;1.30;99.90
13389;DHT22;6764;53.250;10.410;2023-12-04T10:05:06;1.30;99.90
13389;DHT22;6764;53.250;10.410;2023-12-04T10:07:32;1.30;99.90
13389;DHT22;6764;53.250;10.410;2023-12-04T10:09:57;1.50;99.90
13389;DHT22;6764;53.250;10.410;2023-12-04T10:12:23;1.50;99.90
13389;DHT22;6764;53.250;10.410;2023-12-04T10:15:08;1.40;99.90
13389;DHT22;6764;53.250;10.410;2023-12-04T10:17:36;1.50;99.90
13389;DHT22;6764;53.250;10.410;2023-12-04T10:22:36;1.40;99.90
13389;DHT22;6764;53.250;10.410;2023-12-04T10:25:16;1.40;99.90
13389;DHT22;6764;53.250;10.410;2023-12-04T10:27:43;1.50;99.90
13389;DHT22;6764;53.250;10.410;2023-12-04T10:30:09;1.70;99.90
13389;DHT22;6764;53.250;10.410;2023-12-04T10:32:39;1.80;99.90
13389;DHT22;6764;53.250;10.410;2023-12-04T10:35:07;1.70;99.90
13389;DHT22;6764;53.250;10.410;2023-12-04T10:37:36;1.80;99.90
13389;DHT22;6764;53.250;10.410;2023-12-04T10:40:03;1.60;99.90
13389;DHT22;6764;53.250;10.410;2023-12-04T10:42:29;1.60;99.90
13389;DHT22;6764;53.250;10.410;2023-12-04T10:44:58;1.70;99.90
13389;DHT22;6764;53.250;10.410;2023-12-04T10:47:24;1.70;99.90
13389;DHT22;6764;53.250;10.410;2023-12-04T10:49:50;1.90;99.90
13389;DHT22;6764;53.250;10.410;2023-12-04T10:52:17;1.90;99.90
13389;DHT22;6764;53.250;10.410;2023-12-04T10:54:47;2.10;99.90
13389;DHT22;6764;53.250;10.410;2023-12-04T10:57:20;2.00;99.90
13389;DHT22;6764;53.250;10.410;2023-12-04T10:59:47;2.00;99.90
13389;DHT22;6764;53.250;10.410;2023-12-04T11:02:18;2.00;99.90
13389;DHT22;6764;53.250;10.410;2023-12-04T11:04:49;2.10;99.90
13389;DHT22;6764;53.250;10.410;2023-12-04T11:07:17;2.00;99.90
13389;DHT22;6764;53.250;10.410;2023-12-04T11:09:44;2.00;99.90
13389;DHT22;6764;53.250;10.410;2023-12-04T11:12:14;2.00;99.90
13389;DHT22;6764;53.250;10.410;2023-12-04T11:14:50;2.00;99.90
13389;DHT22;6764;53.250;10.410;2023-12-04T11:17:19;2.10;99.90
13389;DHT22;6764;53.250;10.410;2023-12-04T11:19:59;2.00;99.90
13389;DHT22;6764;53.250;10.410;2023-12-04T11:22:27;2.10;99.90
13389;DHT22;6764;53.250;10.410;2023-12-04T11:24:54;2.00;99.90
13389;DHT22;6764;53.250;10.410;2023-12-04T11:27:20;2.00;99.90
13389;DHT22;6764;53.250;10.410;2023-12-04T11:29:47;2.00;99.90
13389;DHT22;6764;53.250;10.410;2023-12-04T11:32:16;1.90;99.90
13389;DHT22;6764;53.250;10.410;2023-12-04T11:34:50;2.00;99.90
13389;DHT22;6764;53.250;10.410;2023-12-04T11:37:16;2.00;99.90
13389;DHT22;6764;53.250;10.410;2023-12-04T11:39:41;1.90;99.90
13389;DHT22;6764;53.250;10.410;2023-12-04T11:42:07;2.10;99.90
13389;DHT22;6764;53.250;10.410;2023-12-04T11:44:33;2.20;99.90
13389;DHT22;6764;53.250;10.410;2023-12-04T11:47:05;2.20;99.90
13389;DHT22;6764;53.250;10.410;2023-12-04T11:49:32;2.20;99.90
13389;DHT22;6764;53.250;10.410;2023-12-04T11:51:59;2.20;99.90
13389;DHT22;6764;53.250;10.410;2023-12-04T11:54:26;2.30;99.90
13389;DHT22;6764;53.250;10.410;2023-12-04T11:56:59;2.40;99.90
13389;DHT22;6764;53.250;10.410;2023-12-04T11:59:25;2.40;99.90
13389;DHT22;6764;53.250;10.410;2023-12-04T12:01:54;2.30;99.90
13389;DHT22;6764;53.250;10.410;2023-12-04T12:04:20;2.30;99.90
13389;DHT22;6764;53.250;10.410;2023-12-04T12:06:46;2.40;99.90
13389;DHT22;6764;53.250;10.410;2023-12-04T12:09:12;2.50;99.90
13389;DHT22;6764;53.250;10.410;2023-12-04T12:11:39;2.60;99.90
13389;DHT22;6764;53.250;10.410;2023-12-04T12:14:05;2.70;99.90
13389;DHT22;6764;53.250;10.410;2023-12-04T12:16:36;2.70;99.90
13389;DHT22;6764;53.250;10.410;2023-12-04T12:19:02;2.70;99.90
13389;DHT22;6764;53.250;10.410;2023-12-04T12:21:28;2.80;99.90
13389;DHT22;6764;53.250;10.410;2023-12-04T12:23:54;2.70;99.90
13389;DHT22;6764;53.250;10.410;2023-12-04T12:26:20;2.60;99.90
13389;DHT22;6764;53.250;10.410;2023-12-04T12:28:45;2.60;99.90
13389;DHT22;6764;53.250;10.410;2023-12-04T12:31:11;2.60;99.90
13389;DHT22;6764;53.250;10.410;2023-12-04T12:33:37;2.80;99.90
13389;DHT22;6764;53.250;10.410;2023-12-04T12:36:03;2.70;99.90
13389;DHT22;6764;53.250;10.410;2023-12-04T12:38:30;2.80;99.90
13389;DHT22;6764;53.250;10.410;2023-12-04T12:41:00;2.80;99.90
13389;DHT22;6764;53.250;10.410;2023-12-04T12:43:27;2.80;99.90
13389;DHT22;6764;53.250;10.410;2023-12-04T12:45:53;2.80;99.90
13389;DHT22;6764;53.250;10.410;2023-12-04T12:48:19;2.90;99.90
13389;DHT22;6764;53.250;10.410;2023-12-04T12:50:46;2.90;99.90
13389;DHT22;6764;53.250;10.410;2023-12-04T12:53:13;3.00;99.90
13389;DHT22;6764;53.250;10.410;2023-12-04T12:55:40;3.00;99.90
13389;DHT22;6764;53.250;10.410;2023-12-04T12:58:06;3.00;99.90
13389;DHT22;6764;53.250;10.410;2023-12-04T13:00:35;3.00;99.90
13389;DHT22;6764;53.250;10.410;2023-12-04T13:03:02;2.90;99.90
13389;DHT22;6764;53.250;10.410;2023-12-04T13:05:28;2.90;99.90
13389;DHT22;6764;53.250;10.410;2023-12-04T13:07:54;2.90;99.90
13389;DHT22;6764;53.250;10.410;2023-12-04T13:10:21;2.80;99.90
13389;DHT22;6764;53.250;10.410;2023-12-04T13:12:46;2.70;99.90
13389;DHT22;6764;53.250;10.410;2023-12-04T13:15:12;2.80;99.90
13389;DHT22;6764;53.250;10.410;2023-12-04T13:17:38;2.80;99.90
13389;DHT22;6764;53.250;10.410;2023-12-04T13:20:04;2.80;99.90
13389;DHT22;6764;53.250;10.410;2023-12-04T13:22:30;2.70;99.90
13389;DHT22;6764;53.250;10.410;2023-12-04T13:24:58;2.70;99.90
13389;DHT22;6764;53.250;10.410;2023-12-04T13:27:24;2.60;99.90
13389;DHT22;6764;53.250;10.410;2023-12-04T13:29:49;2.70;99.90
13389;DHT22;6764;53.250;10.410;2023-12-04T13:32:16;2.70;99.90
13389;DHT22;6764;53.250;10.410;2023-12-04T13:34:42;2.60;99.90
13389;DHT22;6764;53.250;10.410;2023-12-04T13:37:08;2.40;99.90
13389;DHT22;6764;53.250;10.410;2023-12-04T13:39:34;2.30;99.90
13389;DHT22;6764;53.250;10.410;2023-12-04T13:42:17;2.40;99.90
13389;DHT22;6764;53.250;10.410;2023-12-04T13:45:01;2.30;99.90
13389;DHT22;6764;53.250;10.410;2023-12-04T13:47:27;2.10;99.90
13389;DHT22;6764;53.250;10.410;2023-12-04T13:49:55;2.00;99.90
13389;DHT22;6764;53.250;10.410;2023-12-04T13:52:23;1.80;99.90
13389;DHT22;6764;53.250;10.410;2023-12-04T13:54:50;1.90;99.90
13389;DHT22;6764;53.250;10.410;2023-12-04T13:57:18;1.80;99.90
13389;DHT22;6764;53.250;10.410;2023-12-04T14:00:06;1.90;99.90
13389;DHT22;6764;53.250;10.410;2023-12-04T14:02:35;1.90;99.90
13389;DHT22;6764;53.250;10.410;2023-12-04T14:05:03;1.90;99.90
13389;DHT22;6764;53.250;10.410;2023-12-04T14:07:28;1.90;99.90
13389;DHT22;6764;53.250;10.410;2023-12-04T14:09:54;1.90;99.90
13389;DHT22;6764;53.250;10.410;2023-12-04T14:12:20;1.90;99.90
13389;DHT22;6764;53.250;10.410;2023-12-04T14:14:45;2.00;99.90
13389;DHT22;6764;53.250;10.410;2023-12-04T14:17:12;2.00;99.90
13389;DHT22;6764;53.250;10.410;2023-12-04T14:19:38;1.90;99.90
13389;DHT22;6764;53.250;10.410;2023-12-04T14:22:05;1.90;99.90
13389;DHT22;6764;53.250;10.410;2023-12-04T14:24:31;1.80;99.90
13389;DHT22;6764;53.250;10.410;2023-12-04T14:26:59;1.80;99.90
13389;DHT22;6764;53.250;10.410;2023-12-04T14:29:25;2.00;99.90
13389;DHT22;6764;53.250;10.410;2023-12-04T14:31:50;2.10;99.90
13389;DHT22;6764;53.250;10.410;2023-12-04T14:34:16;2.00;99.90
13389;DHT22;6764;53.250;10.410;2023-12-04T14:36:41;1.90;99.90
13389;DHT22;6764;53.250;10.410;2023-12-04T14:39:07;2.00;99.90
13389;DHT22;6764;53.250;10.410;2023-12-04T14:41:36;1.90;99.90
13389;DHT22;6764;53.250;10.410;2023-12-04T14:44:01;1.90;99.90
13389;DHT22;6764;53.250;10.410;2023-12-04T14:46:28;2.00;99.90
13389;DHT22;6764;53.250;10.410;2023-12-04T14:48:54;2.00;99.90
13389;DHT22;6764;53.250;10.410;2023-12-04T14:51:19;2.00;99.90
13389;DHT22;6764;53.250;10.410;2023-12-04T14:53:45;2.00;99.90
13389;DHT22;6764;53.250;10.410;2023-12-04T14:56:31;2.10;99.90
13389;DHT22;6764;53.250;10.410;2023-12-04T14:59:02;2.30;99.90
13389;DHT22;6764;53.250;10.410;2023-12-04T15:01:31;2.10;99.90
13389;DHT22;6764;53.250;10.410;2023-12-04T15:04:06;2.10;99.90
13389;DHT22;6764;53.250;10.410;2023-12-04T15:06:50;2.10;99.90
13389;DHT22;6764;53.250;10.410;2023-12-04T15:09:34;2.10;99.90
13389;DHT22;6764;53.250;10.410;2023-12-04T15:12:05;2.10;99.90
13389;DHT22;6764;53.250;10.410;2023-12-04T15:14:47;2.10;99.90
13389;DHT22;6764;53.250;10.410;2023-12-04T15:17:37;2.10;99.90
13389;DHT22;6764;53.250;10.410;2023-12-04T15:20:21;2.00;99.90
13389;DHT22;6764;53.250;10.410;2023-12-04T15:22:53;1.90;99.90
13389;DHT22;6764;53.250;10.410;2023-12-04T15:25:18;2.00;99.90
13389;DHT22;6764;53.250;10.410;2023-12-04T15:27:46;2.10;99.90
13389;DHT22;6764;53.250;10.410;2023-12-04T15:30:11;2.10;99.90
13389;DHT22;6764;53.250;10.410;2023-12-04T15:32:38;2.00;99.90
13389;DHT22;6764;53.250;10.410;2023-12-04T15:35:07;1.90;99.90
13389;DHT22;6764;53.250;10.410;2023-12-04T15:37:35;1.90;99.90
13389;DHT22;6764;53.250;10.410;2023-12-04T15:40:00;1.90;99.90
13389;DHT22;6764;53.250;10.410;2023-12-04T15:42:26;1.90;99.90